createdAt,value
2018-05-14T00:00:33.685Z,98568.45
2018-05-14T00:03:07.521Z,98566.92
2018-05-14T00:05:41.414Z,98567.23
2018-05-14T00:08:15.167Z,98558.47
2018-05-14T00:10:48.988Z,98554.78
2018-05-14T00:13:23.265Z,98550.80
2018-05-14T00:15:56.982Z,98551.52
2018-05-14T00:18:31.803Z,98552.48
2018-05-14T00:21:05.593Z,98553.38
2018-05-14T00:23:39.372Z,98546.58
2018-05-14T00:26:13.082Z,98553.05
2018-05-14T00:28:46.918Z,98552.09
2018-05-14T00:31:20.717Z,98541.06
2018-05-14T00:33:54.618Z,98549.34
2018-05-14T00:36:29.317Z,98535.89
2018-05-14T00:39:03.191Z,98529.70
2018-05-14T00:41:37.923Z,98526.02
2018-05-14T00:44:11.693Z,98530.41
2018-05-14T00:46:45.372Z,98526.55
2018-05-14T00:49:19.157Z,98532.73
2018-05-14T00:51:52.825Z,98531.06
2018-05-14T00:54:26.617Z,98528.22
2018-05-14T00:57:00.354Z,98534.22
2018-05-14T00:59:34.229Z,98532.03
2018-05-14T01:02:07.794Z,98532.27
2018-05-14T01:04:42.512Z,98530.97
2018-05-14T01:07:16.361Z,98527.22
2018-05-14T01:09:50.129Z,98522.77
2018-05-14T01:12:23.889Z,98522.20
2018-05-14T01:14:57.656Z,98520.64
2018-05-14T01:17:31.315Z,98516.84
2018-05-14T01:20:05.177Z,98513.03
2018-05-14T01:22:38.889Z,98522.03
2018-05-14T01:25:12.596Z,98516.75
2018-05-14T01:27:46.195Z,98513.63
2018-05-14T01:30:19.933Z,98520.70
2018-05-14T01:32:53.652Z,98517.16
2018-05-14T01:35:27.365Z,98515.69
2018-05-14T01:38:01.145Z,98518.14
2018-05-14T01:40:35.026Z,98516.78
2018-05-14T01:43:08.750Z,98520.20
2018-05-14T01:45:42.545Z,98516.05
2018-05-14T01:48:16.370Z,98517.97
2018-05-14T01:50:50.147Z,98509.04
2018-05-14T01:53:23.830Z,98515.09
2018-05-14T01:55:57.620Z,98512.59
2018-05-14T01:58:31.337Z,98509.77
2018-05-14T02:01:05.045Z,98506.58
2018-05-14T02:03:38.768Z,98513.30
2018-05-14T02:06:12.481Z,98505.48
2018-05-14T02:08:46.382Z,98514.55
2018-05-14T02:11:20.193Z,98517.28
2018-05-14T02:13:53.962Z,98521.02
2018-05-14T02:16:27.748Z,98514.91
2018-05-14T02:19:01.494Z,98515.81
2018-05-14T02:21:35.231Z,98510.42
2018-05-14T02:24:08.868Z,98512.81
2018-05-14T02:26:42.497Z,98513.00
2018-05-14T02:29:16.428Z,98519.78
2018-05-14T02:31:50.146Z,98514.94
2018-05-14T02:34:23.789Z,98518.29
2018-05-14T02:40:11.592Z,98501.35
2018-05-14T02:42:45.299Z,98500.83
2018-05-14T02:45:19.056Z,98501.16
2018-05-14T02:47:52.770Z,98501.77
2018-05-14T02:50:26.551Z,98506.82
2018-05-14T02:53:00.422Z,98506.92
2018-05-14T02:55:34.313Z,98511.35
2018-05-14T02:58:08.007Z,98509.00
2018-05-14T03:00:41.714Z,98511.58
2018-05-14T03:03:15.329Z,98508.98
2018-05-14T03:05:49.170Z,98509.09
2018-05-14T03:08:22.953Z,98507.33
2018-05-14T03:10:56.706Z,98514.03
2018-05-14T03:13:30.342Z,98517.39
2018-05-14T03:16:04.044Z,98510.05
2018-05-14T03:18:37.745Z,98512.69
2018-05-14T03:21:11.381Z,98510.89
2018-05-14T03:23:45.025Z,98514.28
2018-05-14T03:26:18.805Z,98518.27
2018-05-14T03:28:52.506Z,98514.42
2018-05-14T03:31:26.276Z,98518.89
2018-05-14T03:34:00.038Z,98516.11
2018-05-14T03:36:33.822Z,98517.47
2018-05-14T03:39:07.389Z,98514.47
2018-05-14T03:41:41.114Z,98516.19
2018-05-14T03:44:14.785Z,98519.65
2018-05-14T03:46:48.623Z,98512.38
2018-05-14T03:49:22.279Z,98513.17
2018-05-14T03:51:55.973Z,98514.36
2018-05-14T03:54:29.858Z,98510.50
2018-05-14T03:57:18.244Z,98517.67
2018-05-14T04:00:03.677Z,98518.83
2018-05-14T04:02:49.325Z,98513.54
2018-05-14T04:08:16.968Z,98506.27
2018-05-14T04:10:50.971Z,98499.84
2018-05-14T04:13:24.455Z,98500.24
2018-05-14T04:15:58.014Z,98496.50
2018-05-14T04:18:31.597Z,98492.30
2018-05-14T04:21:05.303Z,98503.08
2018-05-14T04:23:39.506Z,98503.89
2018-05-14T04:26:13.248Z,98503.66
2018-05-14T04:28:46.791Z,98505.20
2018-05-14T04:31:20.355Z,98499.81
2018-05-14T04:33:53.952Z,98495.42
2018-05-14T04:36:27.575Z,98494.86
2018-05-14T04:39:01.194Z,98500.94
2018-05-14T04:41:34.828Z,98491.72
2018-05-14T04:44:08.549Z,98503.44
2018-05-14T04:46:42.145Z,98502.36
2018-05-14T04:49:15.817Z,98500.94
2018-05-14T04:51:49.476Z,98500.77
2018-05-14T04:54:23.303Z,98504.80
2018-05-14T04:56:57.173Z,98496.90
2018-05-14T04:59:30.948Z,98503.84
2018-05-14T05:02:04.526Z,98506.23
2018-05-14T05:04:38.271Z,98512.78
2018-05-14T05:07:11.947Z,98510.10
2018-05-14T05:09:45.631Z,98519.80
2018-05-14T05:12:19.195Z,98518.33
2018-05-14T05:14:52.750Z,98505.31
2018-05-14T05:17:26.610Z,98506.84
2018-05-14T05:20:00.164Z,98500.25
2018-05-14T05:22:33.972Z,98497.92
2018-05-14T05:25:07.676Z,98494.00
2018-05-14T05:27:41.359Z,98499.91
2018-05-14T05:30:15.131Z,98502.30
2018-05-14T05:32:48.767Z,98506.50
2018-05-14T05:35:22.471Z,98507.92
2018-05-14T05:37:56.284Z,98509.15
2018-05-14T05:40:29.787Z,98507.53
2018-05-14T05:43:03.608Z,98518.91
2018-05-14T05:45:37.394Z,98514.61
2018-05-14T05:48:11.263Z,98508.01
2018-05-14T05:50:44.905Z,98508.80
2018-05-14T05:53:18.435Z,98517.96
2018-05-14T05:55:52.253Z,98527.01
2018-05-14T05:58:25.968Z,98524.11
2018-05-14T06:00:59.826Z,98519.60
2018-05-14T06:03:33.638Z,98519.83
2018-05-14T06:06:07.208Z,98524.66
2018-05-14T06:08:40.786Z,98521.91
2018-05-14T06:11:14.424Z,98531.55
2018-05-14T06:13:47.946Z,98532.77
2018-05-14T06:16:21.636Z,98531.88
2018-05-14T06:18:55.408Z,98530.83
2018-05-14T06:21:29.011Z,98532.97
2018-05-14T06:24:02.653Z,98534.15
2018-05-14T06:26:36.372Z,98537.37
2018-05-14T06:29:10.136Z,98532.17
2018-05-14T06:31:43.694Z,98538.10
2018-05-14T06:34:17.382Z,98538.73
2018-05-14T06:36:51.125Z,98539.55
2018-05-14T06:39:25.180Z,98545.95
2018-05-14T06:41:58.840Z,98555.56
2018-05-14T06:44:32.396Z,98562.92
2018-05-14T06:47:06.034Z,98563.84
2018-05-14T06:49:39.676Z,98563.30
2018-05-14T06:52:13.499Z,98556.34
2018-05-14T06:54:47.108Z,98564.15
2018-05-14T06:57:20.675Z,98549.23
2018-05-14T06:59:54.214Z,98554.13
2018-05-14T07:02:27.941Z,98549.39
2018-05-14T07:05:01.582Z,98553.20
2018-05-14T07:07:35.136Z,98547.46
2018-05-14T07:10:08.702Z,98543.24
2018-05-14T07:12:42.463Z,98546.19
2018-05-14T07:15:16.060Z,98537.63
2018-05-14T07:17:49.788Z,98543.79
2018-05-14T07:20:23.518Z,98534.70
2018-05-14T07:22:57.249Z,98540.17
2018-05-14T07:25:30.801Z,98540.66
2018-05-14T07:28:04.428Z,98547.30
2018-05-14T07:30:38.012Z,98533.38
2018-05-14T07:33:11.600Z,98541.39
2018-05-14T07:35:45.135Z,98540.05
2018-05-14T07:38:18.791Z,98546.34
2018-05-14T07:40:52.371Z,98544.58
2018-05-14T07:43:26.014Z,98545.98
2018-05-14T07:45:59.688Z,98547.47
2018-05-14T07:48:33.465Z,98549.66
2018-05-14T07:51:07.213Z,98550.69
2018-05-14T07:53:40.996Z,98538.07
2018-05-14T07:56:14.656Z,98540.18
2018-05-14T07:58:48.268Z,98546.49
2018-05-14T08:01:22.038Z,98550.56
2018-05-14T08:03:55.600Z,98554.85
2018-05-14T08:06:29.450Z,98555.36
2018-05-14T08:09:03.080Z,98557.73
2018-05-14T08:11:36.952Z,98552.92
2018-05-14T08:14:10.540Z,98557.52
2018-05-14T08:16:44.320Z,98561.06
2018-05-14T08:19:17.888Z,98559.93
2018-05-14T08:21:51.399Z,98562.31
2018-05-14T08:24:24.920Z,98560.97
2018-05-14T08:26:58.732Z,98562.17
2018-05-14T08:29:32.852Z,98569.03
2018-05-14T08:32:06.512Z,98573.88
2018-05-14T08:34:40.053Z,98579.06
2018-05-14T08:37:13.878Z,98567.03
2018-05-14T08:39:47.364Z,98569.88
2018-05-14T08:42:20.946Z,98571.20
2018-05-14T08:44:54.481Z,98571.32
2018-05-14T08:47:28.560Z,98566.59
2018-05-14T08:50:02.023Z,98569.46
2018-05-14T08:52:35.584Z,98565.50
2018-05-14T08:55:09.178Z,98568.84
2018-05-14T08:57:42.702Z,98564.72
2018-05-14T09:00:16.412Z,98564.31
2018-05-14T09:02:49.962Z,98567.48
2018-05-14T09:05:23.502Z,98562.88
2018-05-14T09:07:57.148Z,98567.59
2018-05-14T09:10:30.844Z,98564.75
2018-05-14T09:13:04.442Z,98564.89
2018-05-14T09:15:38.199Z,98562.36
2018-05-14T09:18:11.861Z,98577.48
2018-05-14T09:20:45.432Z,98566.30
2018-05-14T09:23:19.117Z,98574.09
2018-05-14T09:25:52.912Z,98570.41
2018-05-14T09:28:26.500Z,98582.97
2018-05-14T09:31:00.103Z,98584.06
2018-05-14T09:33:33.838Z,98584.70
2018-05-14T09:36:07.458Z,98585.49
2018-05-14T09:38:41.209Z,98582.71
2018-05-14T09:41:14.776Z,98580.19
2018-05-14T09:43:48.398Z,98578.36
2018-05-14T09:46:22.080Z,98585.34
2018-05-14T09:48:55.612Z,98583.44
2018-05-14T09:51:29.332Z,98575.52
2018-05-14T09:54:02.896Z,98577.80
2018-05-14T09:56:36.487Z,98581.48
2018-05-14T09:59:10.081Z,98578.58
2018-05-14T10:01:43.849Z,98580.58
2018-05-14T10:04:17.427Z,98576.70
2018-05-14T10:06:51.054Z,98582.42
2018-05-14T10:09:24.749Z,98576.45
2018-05-14T10:11:58.584Z,98577.40
2018-05-14T10:14:32.163Z,98581.94
2018-05-14T10:17:05.739Z,98580.86
2018-05-14T10:19:39.610Z,98575.84
2018-05-14T10:22:13.416Z,98579.44
2018-05-14T10:24:46.977Z,98581.66
2018-05-14T10:27:20.577Z,98587.34
2018-05-14T10:29:54.198Z,98586.62
2018-05-14T10:32:28.029Z,98580.94
2018-05-14T10:35:01.816Z,98582.20
2018-05-14T10:37:35.415Z,98585.12
2018-05-14T10:40:09.120Z,98586.60
2018-05-14T10:42:42.759Z,98590.90
2018-05-14T10:45:16.344Z,98582.11
2018-05-14T10:47:49.963Z,98587.85
2018-05-14T10:50:23.592Z,98580.55
2018-05-14T10:52:57.282Z,98584.67
2018-05-14T10:55:30.953Z,98579.69
2018-05-14T10:58:04.760Z,98587.75
2018-05-14T11:00:38.348Z,98579.08
2018-05-14T11:03:11.914Z,98585.75
2018-05-14T11:05:45.467Z,98590.80
2018-05-14T11:08:19.359Z,98579.59
2018-05-14T11:10:53.043Z,98583.56
2018-05-14T11:13:26.712Z,98579.31
2018-05-14T11:16:00.267Z,98576.86
2018-05-14T11:18:33.932Z,98585.23
2018-05-14T11:21:07.696Z,98580.70
2018-05-14T11:23:41.260Z,98569.44
2018-05-14T11:26:15.106Z,98578.62
2018-05-14T11:28:48.663Z,98585.13
2018-05-14T11:31:22.176Z,98577.59
2018-05-14T11:33:55.737Z,98588.83
2018-05-14T11:39:41.201Z,98592.69
2018-05-14T11:42:14.780Z,98591.66
2018-05-14T11:44:48.537Z,98594.83
2018-05-14T11:47:22.205Z,98600.28
2018-05-14T11:49:55.890Z,98597.41
2018-05-14T11:52:29.456Z,98601.67
2018-05-14T11:55:03.216Z,98608.84
2018-05-14T11:57:36.892Z,98603.30
2018-05-14T12:00:10.490Z,98606.69
2018-05-14T12:02:44.360Z,98604.50
2018-05-14T12:05:17.941Z,98604.34
2018-05-14T12:07:51.596Z,98598.44
2018-05-14T12:10:25.186Z,98600.58
2018-05-14T12:12:58.759Z,98606.25
2018-05-14T12:15:32.646Z,98603.31
2018-05-14T12:18:06.555Z,98605.37
2018-05-14T12:20:40.060Z,98603.14
2018-05-14T12:23:13.716Z,98603.26
2018-05-14T12:25:47.308Z,98603.78
2018-05-14T12:28:20.846Z,98603.55
2018-05-14T12:30:54.424Z,98604.22
2018-05-14T12:33:28.330Z,98594.49
2018-05-14T12:36:02.088Z,98601.25
2018-05-14T12:38:35.850Z,98603.63
2018-05-14T12:41:09.652Z,98603.92
2018-05-14T12:43:43.208Z,98597.95
2018-05-14T12:46:16.804Z,98589.87
2018-05-14T12:48:50.308Z,98593.78
2018-05-14T12:51:23.976Z,98592.89
2018-05-14T12:53:57.559Z,98591.88
2018-05-14T12:56:31.157Z,98595.61
2018-05-14T12:59:04.687Z,98589.44
2018-05-14T13:01:38.450Z,98587.14
2018-05-14T13:04:12.308Z,98594.11
2018-05-14T13:06:45.976Z,98600.73
2018-05-14T13:09:19.844Z,98588.05
2018-05-14T13:11:53.444Z,98587.50
2018-05-14T13:14:26.999Z,98591.82
2018-05-14T13:17:00.642Z,98592.80
2018-05-14T13:19:34.338Z,98596.52
2018-05-14T13:22:07.941Z,98593.61
2018-05-14T13:24:42.055Z,98593.11
2018-05-14T13:27:15.716Z,98590.87
2018-05-14T13:29:49.286Z,98589.10
2018-05-14T13:32:22.917Z,98591.20
2018-05-14T13:34:56.473Z,98583.25
2018-05-14T13:37:30.209Z,98589.06
2018-05-14T13:40:03.877Z,98588.03
2018-05-14T13:42:37.509Z,98593.00
2018-05-14T13:45:11.107Z,98585.41
2018-05-14T13:47:44.783Z,98588.05
2018-05-14T13:50:18.521Z,98577.44
2018-05-14T13:52:52.371Z,98584.97
2018-05-14T13:55:25.860Z,98581.53
2018-05-14T13:57:59.498Z,98578.83
2018-05-14T14:00:33.048Z,98578.34
2018-05-14T14:03:06.695Z,98574.93
2018-05-14T14:05:40.311Z,98572.91
2018-05-14T14:08:13.860Z,98576.23
2018-05-14T14:10:47.617Z,98573.09
2018-05-14T14:13:21.258Z,98574.98
2018-05-14T14:15:55.034Z,98576.33
2018-05-14T14:18:28.671Z,98563.44
2018-05-14T14:21:02.266Z,98570.47
2018-05-14T14:23:36.021Z,98576.41
2018-05-14T14:26:09.544Z,98578.88
2018-05-14T14:28:43.119Z,98571.56
2018-05-14T14:31:16.783Z,98580.08
2018-05-14T14:33:50.363Z,98574.78
2018-05-14T14:36:24.206Z,98565.12
2018-05-14T14:38:57.950Z,98563.06
2018-05-14T14:41:31.626Z,98570.95
2018-05-14T14:44:05.400Z,98576.93
2018-05-14T14:46:39.236Z,98569.95
2018-05-14T14:49:12.977Z,98560.20
2018-05-14T14:51:46.531Z,98562.20
2018-05-14T14:54:20.151Z,98569.73
2018-05-14T14:56:53.734Z,98566.52
2018-05-14T14:59:27.304Z,98556.14
2018-05-14T15:02:01.098Z,98560.01
2018-05-14T15:04:34.812Z,98575.54
2018-05-14T15:07:08.412Z,98570.73
2018-05-14T15:09:42.127Z,98563.16
2018-05-14T15:12:15.736Z,98554.14
2018-05-14T15:14:49.533Z,98555.86
2018-05-14T15:17:23.065Z,98560.26
2018-05-14T15:19:56.594Z,98566.75
2018-05-14T15:22:30.136Z,98578.27
2018-05-14T15:25:03.752Z,98569.72
2018-05-14T15:27:37.476Z,98581.16
2018-05-14T15:30:11.326Z,98580.47
2018-05-14T15:32:44.975Z,98576.61
2018-05-14T15:35:18.615Z,98569.61
2018-05-14T15:37:52.160Z,98568.27
2018-05-14T15:40:25.701Z,98567.03
2018-05-14T15:42:59.365Z,98565.59
2018-05-14T15:45:33.029Z,98563.27
2018-05-14T15:48:06.638Z,98556.50
2018-05-14T15:50:40.396Z,98566.81
2018-05-14T15:53:14.008Z,98559.83
2018-05-14T15:55:47.623Z,98555.95
2018-05-14T15:58:21.375Z,98554.63
2018-05-14T16:00:55.148Z,98550.27
2018-05-14T16:03:28.928Z,98555.05
2018-05-14T16:06:02.504Z,98549.19
2018-05-14T16:08:36.132Z,98553.02
2018-05-14T16:11:09.968Z,98555.77
2018-05-14T16:13:43.767Z,98552.13
2018-05-14T16:16:17.392Z,98555.14
2018-05-14T16:18:50.982Z,98557.22
2018-05-14T16:21:24.968Z,98553.45
2018-05-14T16:23:58.552Z,98559.17
2018-05-14T16:26:32.273Z,98552.04
2018-05-14T16:29:05.804Z,98552.93
2018-05-14T16:31:39.531Z,98552.23
2018-05-14T16:34:13.252Z,98559.73
2018-05-14T16:36:47.064Z,98554.02
2018-05-14T16:39:20.627Z,98556.32
2018-05-14T16:41:54.324Z,98561.17
2018-05-14T16:44:27.934Z,98559.47
2018-05-14T16:47:01.751Z,98562.49
2018-05-14T16:49:35.300Z,98570.09
2018-05-14T16:52:09.037Z,98566.48
2018-05-14T16:54:42.719Z,98579.48
2018-05-14T16:57:16.290Z,98572.94
2018-05-14T16:59:49.868Z,98573.14
2018-05-14T17:02:23.604Z,98581.41
2018-05-14T17:04:57.147Z,98578.77
2018-05-14T17:07:30.804Z,98583.92
2018-05-14T17:10:04.330Z,98581.58
2018-05-14T17:12:38.088Z,98578.64
2018-05-14T17:15:11.841Z,98583.17
2018-05-14T17:17:45.385Z,98576.83
2018-05-14T17:20:18.959Z,98589.99
2018-05-14T17:22:52.736Z,98579.62
2018-05-14T17:25:27.299Z,98591.14
2018-05-14T17:28:00.966Z,98586.79
2018-05-14T17:30:34.699Z,98588.23
2018-05-14T17:33:08.340Z,98586.08
2018-05-14T17:35:42.019Z,98595.22
2018-05-14T17:38:15.607Z,98584.91
2018-05-14T17:40:49.408Z,98584.55
2018-05-14T17:43:23.032Z,98585.75
2018-05-14T17:45:56.817Z,98589.95
2018-05-14T17:48:30.524Z,98591.60
2018-05-14T17:51:04.304Z,98594.78
2018-05-14T17:53:37.887Z,98592.21
2018-05-14T17:56:11.473Z,98589.66
2018-05-14T17:58:45.136Z,98588.28
2018-05-14T18:01:18.895Z,98590.72
2018-05-14T18:03:52.431Z,98591.15
2018-05-14T18:06:26.236Z,98591.34
2018-05-14T18:08:59.727Z,98591.56
2018-05-14T18:11:33.519Z,98592.17
2018-05-14T18:14:07.120Z,98591.37
2018-05-14T18:16:40.875Z,98585.88
2018-05-14T18:19:14.485Z,98581.73
2018-05-14T18:21:48.000Z,98586.67
2018-05-14T18:24:21.568Z,98597.19
2018-05-14T18:26:55.128Z,98597.62
2018-05-14T18:29:30.677Z,98597.61
2018-05-14T18:32:05.303Z,98597.23
2018-05-14T18:34:39.892Z,98600.42
2018-05-14T18:37:13.680Z,98601.03
2018-05-14T18:39:47.341Z,98604.02
2018-05-14T18:42:20.911Z,98609.56
2018-05-14T18:44:54.507Z,98615.47
2018-05-14T18:47:28.211Z,98616.67
2018-05-14T18:50:01.829Z,98621.98
2018-05-14T18:52:35.533Z,98627.14
2018-05-14T18:55:09.106Z,98628.31
2018-05-14T18:57:42.617Z,98633.06
2018-05-14T19:00:16.388Z,98639.58
2018-05-14T19:02:50.048Z,98647.25
2018-05-14T19:05:23.707Z,98646.05
2018-05-14T19:07:57.368Z,98646.83
2018-05-14T19:10:36.931Z,98649.98
2018-05-14T19:13:10.667Z,98648.51
2018-05-14T19:15:50.082Z,98646.13
2018-05-14T19:18:23.766Z,98655.02
2018-05-14T19:20:57.400Z,98653.83
2018-05-14T19:23:36.740Z,98658.87
2018-05-14T19:26:10.403Z,98653.54
2018-05-14T19:28:49.811Z,98664.38
2018-05-14T19:31:23.498Z,98658.83
2018-05-14T19:34:02.994Z,98662.55
2018-05-14T19:36:36.719Z,98668.20
2018-05-14T19:39:10.277Z,98671.54
2018-05-14T19:41:43.832Z,98677.25
2018-05-14T19:44:17.594Z,98682.97
2018-05-14T19:46:51.436Z,98679.39
2018-05-14T19:49:25.178Z,98687.12
2018-05-14T19:51:58.904Z,98683.80
2018-05-14T19:54:32.663Z,98690.06
2018-05-14T19:57:06.277Z,98692.38
2018-05-14T19:59:39.960Z,98692.72
2018-05-14T20:02:13.593Z,98690.27
2018-05-14T20:04:47.330Z,98693.19
2018-05-14T20:07:20.912Z,98697.11
2018-05-14T20:09:54.659Z,98695.75
2018-05-14T20:12:28.483Z,98703.62
2018-05-14T20:15:02.047Z,98697.71
2018-05-14T20:17:35.552Z,98707.28
2018-05-14T20:20:09.316Z,98706.46
2018-05-14T20:22:43.057Z,98714.39
2018-05-14T20:25:16.853Z,98715.74
2018-05-14T20:27:50.518Z,98716.49
2018-05-14T20:30:24.344Z,98722.88
2018-05-14T20:32:57.960Z,98720.77
2018-05-14T20:35:31.803Z,98723.25
2018-05-14T20:38:05.375Z,98723.17
2018-05-14T20:40:39.233Z,98720.53
2018-05-14T20:43:12.797Z,98727.31
2018-05-14T20:45:46.528Z,98724.88
2018-05-14T20:48:20.311Z,98720.61
2018-05-14T20:50:54.075Z,98738.92
2018-05-14T20:53:27.652Z,98739.48
2018-05-14T20:56:01.207Z,98745.42
2018-05-14T20:58:35.008Z,98739.14
2018-05-14T21:01:08.598Z,98743.66
2018-05-14T21:03:42.198Z,98747.03
2018-05-14T21:06:15.714Z,98751.59
2018-05-14T21:08:49.473Z,98751.43
2018-05-14T21:11:23.183Z,98758.77
2018-05-14T21:13:56.884Z,98763.95
2018-05-14T21:16:30.477Z,98764.84
2018-05-14T21:19:04.075Z,98772.66
2018-05-14T21:21:37.732Z,98768.09
2018-05-14T21:24:11.324Z,98770.95
2018-05-14T21:26:45.069Z,98780.55
2018-05-14T21:29:18.747Z,98784.78
2018-05-14T21:31:52.280Z,98782.50
2018-05-14T21:34:25.947Z,98784.25
2018-05-14T21:36:59.527Z,98793.79
2018-05-14T21:39:33.300Z,98795.48
2018-05-14T21:42:07.036Z,98789.52
2018-05-14T21:44:40.563Z,98799.16
2018-05-14T21:47:14.127Z,98797.84
2018-05-14T21:49:47.907Z,98800.05
2018-05-14T21:52:21.583Z,98804.18
2018-05-14T21:54:55.298Z,98799.67
2018-05-14T21:57:28.878Z,98793.19
2018-05-14T22:00:02.657Z,98797.75
2018-05-14T22:02:36.448Z,98807.11
2018-05-14T22:05:10.030Z,98802.89
2018-05-14T22:07:43.528Z,98800.66
2018-05-14T22:10:17.221Z,98798.73
2018-05-14T22:12:50.917Z,98799.11
2018-05-14T22:15:24.510Z,98803.78
2018-05-14T22:17:58.176Z,98801.95
2018-05-14T22:20:31.907Z,98798.92
2018-05-14T22:23:05.448Z,98799.98
2018-05-14T22:25:39.104Z,98803.89
2018-05-14T22:28:12.783Z,98798.73
2018-05-14T22:30:46.300Z,98804.10
2018-05-14T22:33:19.907Z,98801.22
2018-05-14T22:35:53.536Z,98796.09
2018-05-14T22:38:27.122Z,98800.06
2018-05-14T22:41:00.636Z,98803.11
2018-05-14T22:43:34.197Z,98796.26
2018-05-14T22:46:07.848Z,98794.20
2018-05-14T22:48:41.467Z,98792.25
2018-05-14T22:51:15.199Z,98794.20
2018-05-14T22:53:48.868Z,98796.42
2018-05-14T22:56:39.275Z,98798.38
2018-05-14T22:59:13.032Z,98796.70
2018-05-14T23:01:46.809Z,98791.14
2018-05-14T23:04:20.416Z,98794.42
2018-05-14T23:06:54.267Z,98790.38
2018-05-14T23:09:28.042Z,98785.68
2018-05-14T23:12:01.825Z,98785.93
2018-05-14T23:14:35.408Z,98791.53
2018-05-14T23:17:09.078Z,98794.19
2018-05-14T23:19:42.748Z,98795.48
2018-05-14T23:22:16.328Z,98794.17
2018-05-14T23:24:49.949Z,98800.41
2018-05-14T23:27:23.576Z,98795.46
2018-05-14T23:29:57.397Z,98800.95
2018-05-14T23:32:31.118Z,98800.55
2018-05-14T23:35:04.809Z,98790.51
2018-05-14T23:37:38.521Z,98796.56
2018-05-14T23:40:12.055Z,98796.26
2018-05-14T23:42:46.056Z,98784.84
2018-05-14T23:45:19.707Z,98786.30
2018-05-14T23:47:53.473Z,98790.19
2018-05-14T23:50:27.120Z,98787.23
2018-05-14T23:53:00.699Z,98791.00
2018-05-14T23:55:34.337Z,98792.33
2018-05-14T23:58:07.958Z,98797.33
